createdAt,value
2023-05-17T00:02:21.639Z,15.19
2023-05-17T00:04:49.222Z,15.28
2023-05-17T00:07:16.242Z,15.34
2023-05-17T00:09:43.093Z,15.45
2023-05-17T00:12:10.210Z,15.40
2023-05-17T00:14:37.124Z,15.43
2023-05-17T00:17:04.042Z,15.39
2023-05-17T00:19:31.003Z,15.43
2023-05-17T00:21:58.021Z,15.48
2023-05-17T00:24:25.190Z,15.47
2023-05-17T00:26:52.320Z,15.52
2023-05-17T00:29:19.204Z,15.49
2023-05-17T00:31:46.045Z,15.52
2023-05-17T00:34:12.986Z,15.48
2023-05-17T00:36:39.898Z,15.38
2023-05-17T00:39:06.997Z,15.39
2023-05-17T00:41:34.109Z,15.25
2023-05-17T00:44:01.053Z,15.19
2023-05-17T00:46:28.075Z,15.19
2023-05-17T00:48:55.214Z,15.23
2023-05-17T00:51:23.280Z,15.26
2023-05-17T00:53:50.812Z,15.22
2023-05-17T00:56:17.982Z,15.20
2023-05-17T00:58:45.334Z,15.22
2023-05-17T01:03:48.156Z,15.11
2023-05-17T01:06:15.643Z,15.12
2023-05-17T01:08:43.878Z,15.12
2023-05-17T01:11:33.192Z,15.06
2023-05-17T01:14:35.647Z,15.09
2023-05-17T01:17:07.482Z,15.07
2023-05-17T01:19:43.638Z,15.04
2023-05-17T01:22:28.874Z,15.00
2023-05-17T01:25:19.165Z,14.93
2023-05-17T01:27:49.403Z,14.90
2023-05-17T01:30:19.920Z,14.77
2023-05-17T01:32:47.603Z,14.86
2023-05-17T01:35:15.782Z,14.34
2023-05-17T01:37:43.348Z,14.55
2023-05-17T01:40:11.408Z,14.53
2023-05-17T01:42:42.264Z,14.59
2023-05-17T01:45:31.717Z,14.62
2023-05-17T01:48:04.921Z,14.61
2023-05-17T01:50:33.613Z,14.59
2023-05-17T01:53:08.161Z,14.59
2023-05-17T01:55:46.428Z,14.61
2023-05-17T01:58:14.790Z,14.58
2023-05-17T02:00:46.869Z,14.53
2023-05-17T02:03:21.149Z,14.39
2023-05-17T02:05:48.298Z,14.28
2023-05-17T02:08:15.682Z,14.32
2023-05-17T02:10:42.952Z,14.29
2023-05-17T02:13:12.395Z,14.30
2023-05-17T02:15:43.758Z,14.27
2023-05-17T02:18:12.186Z,14.34
2023-05-17T02:20:39.789Z,14.26
2023-05-17T02:23:06.820Z,14.28
2023-05-17T02:25:34.304Z,14.27
2023-05-17T02:28:01.299Z,14.30
2023-05-17T02:30:29.736Z,14.23
2023-05-17T02:32:57.666Z,14.25
2023-05-17T02:35:25.012Z,14.26
2023-05-17T02:37:53.600Z,14.25
2023-05-17T02:40:21.619Z,14.17
2023-05-17T02:42:48.865Z,14.13
2023-05-17T02:45:16.174Z,14.08
2023-05-17T02:47:43.706Z,14.05
2023-05-17T02:50:11.564Z,14.09
2023-05-17T02:52:38.916Z,14.10
2023-05-17T02:55:07.161Z,14.07
2023-05-17T02:57:34.647Z,13.94
2023-05-17T03:00:01.821Z,13.93
2023-05-17T03:02:31.080Z,13.97
2023-05-17T03:04:58.134Z,13.92
2023-05-17T03:07:25.950Z,13.87
2023-05-17T03:09:53.030Z,13.74
2023-05-17T03:12:20.128Z,13.53
2023-05-17T03:14:47.381Z,13.50
2023-05-17T03:17:14.928Z,13.43
2023-05-17T03:19:42.002Z,13.30
2023-05-17T03:22:09.234Z,13.44
2023-05-17T03:24:36.335Z,13.56
2023-05-17T03:27:03.707Z,13.62
2023-05-17T03:29:30.772Z,13.58
2023-05-17T03:31:58.008Z,13.70
2023-05-17T03:34:24.887Z,13.67
2023-05-17T03:36:54.896Z,13.65
2023-05-17T03:39:21.954Z,13.68
2023-05-17T03:41:49.670Z,13.70
2023-05-17T03:44:17.279Z,13.75
2023-05-17T03:46:44.331Z,13.70
2023-05-17T03:49:11.918Z,13.65
2023-05-17T03:51:39.222Z,13.62
2023-05-17T03:54:06.470Z,13.72
2023-05-17T03:56:33.556Z,13.81
2023-05-17T03:59:02.353Z,13.85
2023-05-17T04:01:29.349Z,13.91
2023-05-17T04:03:56.432Z,14.07
2023-05-17T04:06:24.019Z,14.13
2023-05-17T04:08:51.770Z,14.52
2023-05-17T04:11:23.914Z,14.66
2023-05-17T04:13:52.385Z,14.89
2023-05-17T04:16:20.346Z,14.98
2023-05-17T04:18:47.810Z,15.25
2023-05-17T04:21:14.817Z,15.24
2023-05-17T04:23:42.084Z,15.41
2023-05-17T04:26:09.057Z,15.48
2023-05-17T04:28:36.533Z,15.49
2023-05-17T04:31:08.933Z,15.28
2023-05-17T04:33:37.370Z,15.28
2023-05-17T04:36:04.927Z,15.22
2023-05-17T04:38:32.402Z,15.16
2023-05-17T04:41:05.075Z,15.53
2023-05-17T04:43:33.137Z,15.39
2023-05-17T04:46:01.293Z,15.29
2023-05-17T04:48:32.891Z,15.42
2023-05-17T04:51:04.819Z,15.34
2023-05-17T04:53:32.688Z,15.18
2023-05-17T04:55:59.808Z,15.09
2023-05-17T04:58:28.341Z,15.15
2023-05-17T05:00:55.801Z,15.22
2023-05-17T05:03:23.864Z,15.57
2023-05-17T05:05:51.311Z,15.82
2023-05-17T05:08:19.744Z,16.04
2023-05-17T05:10:46.732Z,15.88
2023-05-17T05:13:14.111Z,15.84
2023-05-17T05:15:41.068Z,15.75
2023-05-17T05:18:08.156Z,15.66
2023-05-17T05:20:35.305Z,15.53
2023-05-17T05:23:04.022Z,15.61
2023-05-17T05:25:31.154Z,15.86
2023-05-17T05:27:58.433Z,15.92
2023-05-17T05:30:25.490Z,16.29
2023-05-17T05:32:53.643Z,16.89
2023-05-17T05:35:21.168Z,16.81
2023-05-17T05:37:48.011Z,17.11
2023-05-17T05:40:15.811Z,17.29
2023-05-17T05:42:42.739Z,17.61
2023-05-17T05:45:10.932Z,18.21
2023-05-17T05:47:37.881Z,17.88
2023-05-17T05:50:06.363Z,17.71
2023-05-17T05:52:33.347Z,18.04
2023-05-17T05:55:00.806Z,18.43
2023-05-17T05:57:30.139Z,18.16
2023-05-17T06:00:00.316Z,18.21
2023-05-17T06:02:27.435Z,19.16
2023-05-17T06:04:54.938Z,19.01
2023-05-17T06:07:22.097Z,19.07
2023-05-17T06:09:49.152Z,18.99
2023-05-17T06:12:17.064Z,19.24
2023-05-17T06:14:44.058Z,19.19
2023-05-17T06:17:11.062Z,19.21
2023-05-17T06:19:38.262Z,19.30
2023-05-17T06:22:05.267Z,19.74
2023-05-17T06:24:33.289Z,19.93
2023-05-17T06:27:00.495Z,20.35
2023-05-17T06:29:27.367Z,20.08
2023-05-17T06:31:56.708Z,20.65
2023-05-17T06:34:23.964Z,20.83
2023-05-17T06:36:51.236Z,21.14
2023-05-17T06:39:18.303Z,21.37
2023-05-17T06:41:46.987Z,21.83
2023-05-17T06:44:14.850Z,21.89
2023-05-17T06:46:41.836Z,22.08
2023-05-17T06:49:10.366Z,22.37
2023-05-17T06:51:37.743Z,22.67
2023-05-17T06:54:04.965Z,22.88
2023-05-17T06:56:32.506Z,23.05
2023-05-17T06:59:02.673Z,23.04
2023-05-17T07:01:30.031Z,23.69
2023-05-17T07:03:57.246Z,23.38
2023-05-17T07:06:24.477Z,22.72
2023-05-17T07:08:51.568Z,22.78
2023-05-17T07:11:18.952Z,23.32
2023-05-17T07:13:46.853Z,23.76
2023-05-17T07:16:14.046Z,23.78
2023-05-17T07:18:41.501Z,23.92
2023-05-17T07:21:09.269Z,24.06
2023-05-17T07:23:37.720Z,24.44
2023-05-17T07:26:05.324Z,24.51
2023-05-17T07:28:32.275Z,24.57
2023-05-17T07:30:59.494Z,24.79
2023-05-17T07:33:26.823Z,24.91
2023-05-17T07:35:54.050Z,25.44
2023-05-17T07:38:21.104Z,25.02
2023-05-17T07:40:48.196Z,25.07
2023-05-17T07:43:15.298Z,25.29
2023-05-17T07:45:43.884Z,25.04
2023-05-17T07:48:11.105Z,25.36
2023-05-17T07:50:38.149Z,25.49
2023-05-17T07:53:05.228Z,25.78
2023-05-17T07:55:32.119Z,25.55
2023-05-17T07:57:59.049Z,25.41
2023-05-17T08:00:27.112Z,25.44
2023-05-17T08:02:54.331Z,25.56
2023-05-17T08:05:21.689Z,25.72
2023-05-17T08:07:49.739Z,25.82
2023-05-17T08:10:19.579Z,26.41
2023-05-17T08:12:48.087Z,26.45
2023-05-17T08:15:15.123Z,26.08
2023-05-17T08:17:42.462Z,26.52
2023-05-17T08:20:13.343Z,26.88
2023-05-17T08:22:40.411Z,27.11
2023-05-17T08:25:08.572Z,26.83
2023-05-17T08:27:37.283Z,26.95
2023-05-17T08:30:11.634Z,27.04
2023-05-17T08:32:43.975Z,26.52
2023-05-17T08:35:11.961Z,26.77
2023-05-17T08:37:39.490Z,26.28
2023-05-17T08:40:08.426Z,26.88
2023-05-17T08:42:36.803Z,25.46
2023-05-17T08:45:05.840Z,26.67
2023-05-17T08:47:34.442Z,26.13
2023-05-17T08:50:04.819Z,26.86
2023-05-17T08:52:32.691Z,26.98
2023-05-17T08:55:04.317Z,26.89
2023-05-17T08:57:33.818Z,26.45
2023-05-17T09:00:09.872Z,25.20
2023-05-17T09:02:37.612Z,25.37
2023-05-17T09:05:07.303Z,26.10
2023-05-17T09:07:34.805Z,25.92
2023-05-17T09:10:06.120Z,25.63
2023-05-17T09:12:37.139Z,25.46
2023-05-17T09:15:17.540Z,25.38
2023-05-17T09:17:51.652Z,25.01
2023-05-17T09:20:34.481Z,25.28
2023-05-17T09:23:02.353Z,25.71
2023-05-17T09:25:30.398Z,26.16
2023-05-17T09:28:02.564Z,25.61
2023-05-17T09:30:33.713Z,25.28
2023-05-17T09:33:08.139Z,25.22
2023-05-17T09:35:37.636Z,25.24
2023-05-17T09:38:09.521Z,25.45
2023-05-17T09:40:41.368Z,25.93
2023-05-17T09:43:09.460Z,26.41
2023-05-17T09:45:39.512Z,26.97
2023-05-17T09:48:20.207Z,26.26
2023-05-17T09:50:50.723Z,26.43
2023-05-17T09:53:31.961Z,26.41
2023-05-17T09:56:02.878Z,26.73
2023-05-17T09:58:32.294Z,26.92
2023-05-17T10:01:02.125Z,26.60
2023-05-17T10:03:34.666Z,24.81
2023-05-17T10:06:05.663Z,24.49
2023-05-17T10:08:33.970Z,24.81
2023-05-17T10:11:09.188Z,24.36
2023-05-17T10:13:49.497Z,24.68
2023-05-17T10:16:18.587Z,25.61
2023-05-17T10:18:46.992Z,25.34
2023-05-17T10:21:17.539Z,25.96
2023-05-17T10:23:46.941Z,25.28
2023-05-17T10:26:16.483Z,25.59
2023-05-17T10:28:48.328Z,25.72
2023-05-17T10:31:16.168Z,26.71
2023-05-17T10:33:47.729Z,26.41
2023-05-17T10:36:18.538Z,27.01
2023-05-17T10:38:46.451Z,26.27
2023-05-17T10:41:15.449Z,25.44
2023-05-17T10:43:45.538Z,25.76
2023-05-17T10:46:23.734Z,24.95
2023-05-17T10:48:55.711Z,25.28
2023-05-17T10:51:25.816Z,25.22
2023-05-17T10:54:05.559Z,25.09
2023-05-17T10:56:33.773Z,25.12
2023-05-17T10:59:24.678Z,25.20
2023-05-17T11:02:04.426Z,25.21
2023-05-17T11:04:42.806Z,25.32
2023-05-17T11:07:28.778Z,25.47
2023-05-17T11:09:56.945Z,25.61
2023-05-17T11:12:44.475Z,25.76
2023-05-17T11:15:14.919Z,26.07
2023-05-17T11:17:45.091Z,26.45
2023-05-17T11:20:16.853Z,26.41
2023-05-17T11:23:01.106Z,26.27
2023-05-17T11:25:35.977Z,26.34
2023-05-17T11:28:20.424Z,26.80
2023-05-17T11:30:56.183Z,26.95
2023-05-17T11:33:39.006Z,27.01
2023-05-17T11:36:14.582Z,26.65
2023-05-17T11:38:42.026Z,26.72
2023-05-17T11:43:53.711Z,26.38
2023-05-17T11:46:24.333Z,26.58
2023-05-17T11:48:53.605Z,26.67
2023-05-17T11:51:23.813Z,26.75
2023-05-17T11:53:55.985Z,26.76
2023-05-17T11:56:35.914Z,26.76
2023-05-17T11:59:09.976Z,26.63
2023-05-17T12:01:47.605Z,26.53
2023-05-17T12:04:23.864Z,26.35
2023-05-17T12:06:51.338Z,26.20
2023-05-17T12:09:20.162Z,26.35
2023-05-17T12:11:48.936Z,26.52
2023-05-17T12:14:18.429Z,26.51
2023-05-17T12:16:47.728Z,26.08
2023-05-17T12:19:23.095Z,25.24
2023-05-17T12:21:52.407Z,25.56
2023-05-17T12:24:20.634Z,24.99
2023-05-17T12:26:48.700Z,25.13
2023-05-17T12:29:23.562Z,25.03
2023-05-17T12:31:53.524Z,24.60
2023-05-17T12:34:20.824Z,24.30
2023-05-17T12:36:49.703Z,24.10
2023-05-17T12:39:18.572Z,23.44
2023-05-17T12:41:48.372Z,23.37
2023-05-17T12:44:16.701Z,23.46
2023-05-17T12:46:45.782Z,23.50
2023-05-17T12:49:13.043Z,23.70
2023-05-17T12:51:45.416Z,23.89
2023-05-17T12:54:26.868Z,24.29
2023-05-17T12:56:54.677Z,24.57
2023-05-17T12:59:22.016Z,24.51
2023-05-17T13:02:02.685Z,24.50
2023-05-17T13:04:32.991Z,24.61
2023-05-17T13:07:02.966Z,24.85
2023-05-17T13:09:31.268Z,25.18
2023-05-17T13:12:06.405Z,25.42
2023-05-17T13:14:36.049Z,25.21
2023-05-17T13:17:04.868Z,24.72
2023-05-17T13:19:32.210Z,24.74
2023-05-17T13:22:00.626Z,24.65
2023-05-17T13:24:30.526Z,24.51
2023-05-17T13:26:58.434Z,24.30
2023-05-17T13:29:31.867Z,24.19
2023-05-17T13:32:07.025Z,24.03
2023-05-17T13:34:34.320Z,24.15
2023-05-17T13:37:01.465Z,24.02
2023-05-17T13:39:28.599Z,23.79
2023-05-17T13:41:57.873Z,23.77
2023-05-17T13:44:25.452Z,23.70
2023-05-17T13:46:52.930Z,23.47
2023-05-17T13:49:21.139Z,23.05
2023-05-17T13:51:48.715Z,22.93
2023-05-17T13:54:17.648Z,22.83
2023-05-17T13:56:44.596Z,22.67
2023-05-17T13:59:12.078Z,22.44
2023-05-17T14:01:39.262Z,22.07
2023-05-17T14:04:06.805Z,21.09
2023-05-17T14:06:34.621Z,20.69
2023-05-17T14:09:03.010Z,20.99
2023-05-17T14:11:33.393Z,21.11
2023-05-17T14:14:01.937Z,20.99
2023-05-17T14:16:29.270Z,20.40
2023-05-17T14:18:56.823Z,20.36
2023-05-17T14:21:23.932Z,20.41
2023-05-17T14:23:51.149Z,20.27
2023-05-17T14:26:18.440Z,20.19
2023-05-17T14:28:45.858Z,19.54
2023-05-17T14:31:13.071Z,19.17
2023-05-17T14:33:40.482Z,18.69
2023-05-17T14:36:07.856Z,17.94
2023-05-17T14:38:35.940Z,18.01
2023-05-17T14:41:03.059Z,17.45
2023-05-17T14:43:30.250Z,17.41
2023-05-17T14:45:57.379Z,17.31
2023-05-17T14:48:24.888Z,17.25
2023-05-17T14:50:53.512Z,17.15
2023-05-17T14:53:21.409Z,17.18
2023-05-17T14:55:48.431Z,17.14
2023-05-17T14:58:16.013Z,17.27
2023-05-17T15:00:48.492Z,17.42
2023-05-17T15:03:21.294Z,17.29
2023-05-17T15:05:57.454Z,17.26
2023-05-17T15:08:24.745Z,17.21
2023-05-17T15:10:52.419Z,17.22
2023-05-17T15:13:19.534Z,17.04
2023-05-17T15:15:50.034Z,16.84
2023-05-17T15:18:17.772Z,16.74
2023-05-17T15:20:44.886Z,16.97
2023-05-17T15:23:13.574Z,17.03
2023-05-17T15:25:42.330Z,17.22
2023-05-17T15:28:09.854Z,17.11
2023-05-17T15:30:37.107Z,17.17
2023-05-17T15:33:06.524Z,17.30
2023-05-17T15:35:33.630Z,17.37
2023-05-17T15:38:07.644Z,17.31
2023-05-17T15:40:34.960Z,17.32
2023-05-17T15:43:02.289Z,17.25
2023-05-17T15:45:31.900Z,17.17
2023-05-17T15:48:02.529Z,17.18
2023-05-17T15:50:29.847Z,17.03
2023-05-17T15:52:56.914Z,16.98
2023-05-17T15:55:26.797Z,17.18
2023-05-17T15:57:53.867Z,17.31
2023-05-17T16:01:01.727Z,17.51
2023-05-17T16:03:29.224Z,17.59
2023-05-17T16:06:09.316Z,17.70
2023-05-17T16:08:52.283Z,17.85
2023-05-17T16:11:43.957Z,17.98
2023-05-17T16:14:11.330Z,18.06
2023-05-17T16:16:38.658Z,18.13
2023-05-17T16:19:06.549Z,18.13
2023-05-17T16:21:34.390Z,18.10
2023-05-17T16:24:01.873Z,18.18
2023-05-17T16:26:29.631Z,18.26
2023-05-17T16:28:57.509Z,18.17
2023-05-17T16:31:24.806Z,18.30
2023-05-17T16:33:52.617Z,18.46
2023-05-17T16:36:23.568Z,18.47
2023-05-17T16:38:51.974Z,18.49
2023-05-17T16:41:19.001Z,18.42
2023-05-17T16:43:46.403Z,18.60
2023-05-17T16:46:15.557Z,18.56
2023-05-17T16:48:43.170Z,18.47
2023-05-17T16:51:11.447Z,18.36
2023-05-17T16:53:38.516Z,18.23
2023-05-17T16:56:06.123Z,18.16
2023-05-17T16:58:34.016Z,17.82
2023-05-17T17:01:01.713Z,17.89
2023-05-17T17:03:29.293Z,17.90
2023-05-17T17:05:57.511Z,17.94
2023-05-17T17:08:24.832Z,18.03
2023-05-17T17:10:52.690Z,17.95
2023-05-17T17:13:22.075Z,17.90
2023-05-17T17:15:51.830Z,17.91
2023-05-17T17:18:19.885Z,17.91
2023-05-17T17:20:46.964Z,17.94
2023-05-17T17:23:14.027Z,17.97
2023-05-17T17:25:41.572Z,17.89
2023-05-17T17:28:08.779Z,17.79
2023-05-17T17:30:35.802Z,17.86
2023-05-17T17:33:03.750Z,17.92
2023-05-17T17:35:31.190Z,17.90
2023-05-17T17:38:00.983Z,17.95
2023-05-17T17:40:28.459Z,17.82
2023-05-17T17:42:56.133Z,17.67
2023-05-17T17:45:23.162Z,17.58
2023-05-17T17:47:50.854Z,17.50
2023-05-17T17:50:17.848Z,17.46
2023-05-17T17:52:44.916Z,17.47
2023-05-17T17:55:14.200Z,17.44
2023-05-17T17:57:42.111Z,17.41
2023-05-17T18:00:11.958Z,17.38
2023-05-17T18:02:40.370Z,17.49
2023-05-17T18:05:10.087Z,17.38
2023-05-17T18:07:37.954Z,17.21
2023-05-17T18:10:05.725Z,17.10
2023-05-17T18:12:33.256Z,17.00
2023-05-17T18:15:00.309Z,16.86
2023-05-17T18:17:28.645Z,16.89
2023-05-17T18:22:34.702Z,17.19
2023-05-17T18:25:01.795Z,17.39
2023-05-17T18:27:29.165Z,17.36
2023-05-17T18:29:56.388Z,17.03
2023-05-17T18:32:23.470Z,16.95
2023-05-17T18:34:50.540Z,16.83
2023-05-17T18:37:17.919Z,16.72
2023-05-17T18:39:46.760Z,16.67
2023-05-17T18:42:13.919Z,16.50
2023-05-17T18:44:43.895Z,16.52
2023-05-17T18:47:12.615Z,16.52
2023-05-17T18:49:45.444Z,16.43
2023-05-17T18:52:12.699Z,16.41
2023-05-17T18:54:50.344Z,16.37
2023-05-17T18:57:24.365Z,16.48
2023-05-17T18:59:51.567Z,16.52
2023-05-17T19:02:18.874Z,16.60
2023-05-17T19:05:02.259Z,16.44
2023-05-17T19:07:29.550Z,16.53
2023-05-17T19:09:56.707Z,16.64
2023-05-17T19:12:24.921Z,16.74
2023-05-17T19:14:54.501Z,16.85
2023-05-17T19:17:21.875Z,16.72
2023-05-17T19:20:00.917Z,16.75
2023-05-17T19:22:53.416Z,16.79
2023-05-17T19:25:21.944Z,16.77
2023-05-17T19:27:53.400Z,16.74
2023-05-17T19:30:20.408Z,16.73
2023-05-17T19:32:47.507Z,16.68
2023-05-17T19:35:14.847Z,16.65
2023-05-17T19:37:42.095Z,16.70
2023-05-17T19:40:09.539Z,16.72
2023-05-17T19:42:37.811Z,16.67
2023-05-17T19:45:05.584Z,16.61
2023-05-17T19:47:32.927Z,16.60
2023-05-17T19:50:02.222Z,16.71
2023-05-17T19:52:29.185Z,16.66
2023-05-17T19:54:56.827Z,16.67
2023-05-17T19:57:24.092Z,16.59
2023-05-17T19:59:52.441Z,16.51
2023-05-17T20:02:20.092Z,16.51
2023-05-17T20:04:48.396Z,16.59
2023-05-17T20:07:17.389Z,16.51
2023-05-17T20:09:45.083Z,16.51
2023-05-17T20:12:12.185Z,16.52
2023-05-17T20:14:41.316Z,16.47
2023-05-17T20:17:08.827Z,16.41
2023-05-17T20:19:36.227Z,16.32
2023-05-17T20:22:04.196Z,16.26
2023-05-17T20:24:35.757Z,16.33
2023-05-17T20:27:09.876Z,16.27
2023-05-17T20:29:37.612Z,16.27
2023-05-17T20:32:05.012Z,16.24
2023-05-17T20:34:33.337Z,16.23
2023-05-17T20:37:01.666Z,16.16
2023-05-17T20:39:29.247Z,16.16
2023-05-17T20:41:57.098Z,16.19
2023-05-17T20:44:26.243Z,16.14
2023-05-17T20:46:56.068Z,16.16
2023-05-17T20:49:31.574Z,16.28
2023-05-17T20:52:05.667Z,16.24
2023-05-17T20:57:07.832Z,16.26
2023-05-17T20:59:36.022Z,16.17
2023-05-17T21:02:04.637Z,16.22
2023-05-17T21:04:31.939Z,16.14
2023-05-17T21:06:59.082Z,16.14
2023-05-17T21:09:27.353Z,16.64
2023-05-17T21:11:54.777Z,16.41
2023-05-17T21:14:21.769Z,16.18
2023-05-17T21:16:48.641Z,16.12
2023-05-17T21:19:15.929Z,16.14
2023-05-17T21:21:43.099Z,16.10
2023-05-17T21:24:10.020Z,16.08
2023-05-17T21:26:39.415Z,16.01
2023-05-17T21:29:07.904Z,16.01
2023-05-17T21:31:35.095Z,15.91
2023-05-17T21:34:02.152Z,16.01
2023-05-17T21:36:29.037Z,15.96
2023-05-17T21:38:56.412Z,16.10
2023-05-17T21:41:23.329Z,16.14
2023-05-17T21:43:50.194Z,16.12
2023-05-17T21:46:17.781Z,16.04
2023-05-17T21:48:45.902Z,16.05
2023-05-17T21:51:14.318Z,16.02
2023-05-17T21:53:41.171Z,16.05
2023-05-17T21:56:08.249Z,16.07
2023-05-17T21:58:35.153Z,15.97
2023-05-17T22:01:02.402Z,16.03
2023-05-17T22:03:30.559Z,16.05
2023-05-17T22:05:57.584Z,15.96
2023-05-17T22:08:32.398Z,15.85
2023-05-17T22:10:59.218Z,15.90
2023-05-17T22:13:26.993Z,15.96
2023-05-17T22:15:57.793Z,15.86
2023-05-17T22:18:27.135Z,15.82
2023-05-17T22:20:55.243Z,15.81
2023-05-17T22:23:22.223Z,15.81
2023-05-17T22:25:49.078Z,15.91
2023-05-17T22:28:16.206Z,15.98
2023-05-17T22:30:45.171Z,15.98
2023-05-17T22:33:12.711Z,15.91
2023-05-17T22:35:41.260Z,16.06
2023-05-17T22:38:08.326Z,15.93
2023-05-17T22:40:35.245Z,16.00
2023-05-17T22:43:02.077Z,15.95
2023-05-17T22:45:33.397Z,15.91
2023-05-17T22:48:03.133Z,15.88
2023-05-17T22:50:33.190Z,15.90
2023-05-17T22:53:01.382Z,15.87
2023-05-17T22:55:28.634Z,15.83
2023-05-17T22:57:55.903Z,15.87
2023-05-17T23:00:22.870Z,15.89
2023-05-17T23:02:49.947Z,15.87
2023-05-17T23:05:17.296Z,15.77
2023-05-17T23:07:44.326Z,15.81
2023-05-17T23:10:12.799Z,15.85
2023-05-17T23:12:40.276Z,15.87
2023-05-17T23:15:13.616Z,15.92
2023-05-17T23:17:41.424Z,15.87
2023-05-17T23:20:10.766Z,15.90
2023-05-17T23:22:39.581Z,15.91
2023-05-17T23:25:07.108Z,15.90
2023-05-17T23:27:35.623Z,15.89
2023-05-17T23:34:35.082Z,15.87
2023-05-17T23:37:02.594Z,15.82
2023-05-17T23:39:29.606Z,15.76
2023-05-17T23:41:56.551Z,15.67
2023-05-17T23:44:23.397Z,15.69
2023-05-17T23:46:51.676Z,15.61
2023-05-17T23:49:19.752Z,15.63
2023-05-17T23:51:46.750Z,15.67
2023-05-17T23:54:14.727Z,15.67
2023-05-17T23:56:42.835Z,15.62
2023-05-17T23:59:09.794Z,15.64
